Time;durP1;ratioP1;P1;durP2;ratioP2;P2;SDS_P1;SDS_P2;PMS_P1;PMS_P2;Temp;Humidity;BMP_temperature;BMP_pressure;BME280_temperature;BME280_humidity;BME280_pressure;Samples;Min_cycle;Max_cycle;Signal;HPM_P1;HPM_P2
2022/09/30 00:02:21;;;;;;;13.00;10.10;;;9.30;99.90;;;;;;5090799;28;20181;-49
2022/09/30 00:04:46;;;;;;;14.73;10.30;;;9.30;99.90;;;;;;5090809;28;20165;-46
2022/09/30 00:07:12;;;;;;;13.17;10.07;;;9.30;99.90;;;;;;5090847;28;20260;-46
2022/09/30 00:09:37;;;;;;;15.60;10.23;;;9.30;99.90;;;;;;5091192;28;20185;-46
2022/09/30 00:12:03;;;;;;;14.50;10.57;;;9.30;99.90;;;;;;5089902;28;20201;-47
2022/09/30 00:14:29;;;;;;;18.30;10.30;;;9.20;99.90;;;;;;5089756;28;20196;-46
2022/09/30 00:16:54;;;;;;;12.53;10.20;;;9.20;99.90;;;;;;5090958;28;20170;-46
2022/09/30 00:19:20;;;;;;;15.10;11.53;;;9.20;99.90;;;;;;5090783;28;20200;-46
2022/09/30 00:21:46;;;;;;;14.50;11.73;;;9.20;99.90;;;;;;5092587;28;20186;-46
2022/09/30 00:24:12;;;;;;;15.87;10.27;;;9.20;99.90;;;;;;5090608;28;20215;-46
2022/09/30 00:26:37;;;;;;;14.93;11.87;;;9.20;99.90;;;;;;5088038;28;20450;-46
2022/09/30 00:29:04;;;;;;;15.67;11.77;;;9.30;99.90;;;;;;5076581;28;20203;-46
2022/09/30 00:31:32;;;;;;;13.20;11.00;;;9.30;99.90;;;;;;5111709;28;20156;-46
2022/09/30 00:34:07;;;;;;;16.80;12.30;;;9.30;99.90;;;;;;5102851;28;20415;-47
2022/09/30 00:36:42;;;;;;;15.27;12.10;;;9.30;99.90;;;;;;5095301;28;20395;-46
2022/09/30 00:39:09;;;;;;;15.57;11.33;;;9.40;99.90;;;;;;5094833;28;20805;-46
2022/09/30 00:41:36;;;;;;;18.37;13.43;;;9.40;99.90;;;;;;5094710;28;20407;-46
2022/09/30 00:44:21;;;;;;;13.67;11.70;;;9.40;99.90;;;;;;5081219;28;20415;-47
2022/09/30 00:46:47;;;;;;;16.00;12.97;;;9.40;99.90;;;;;;5096666;28;20438;-46
2022/09/30 00:49:19;;;;;;;16.10;12.30;;;9.30;99.90;;;;;;5094391;28;20479;-46
2022/09/30 00:51:49;;;;;;;16.60;12.73;;;9.40;99.90;;;;;;5094443;28;20269;-46
2022/09/30 00:54:20;;;;;;;17.00;12.50;;;9.40;99.90;;;;;;5093326;28;20419;-46
2022/09/30 00:56:51;;;;;;;18.80;12.20;;;9.40;99.90;;;;;;5094793;28;20422;-47
2022/09/30 00:59:23;;;;;;;15.20;12.50;;;9.30;99.90;;;;;;5094289;28;20768;-46
2022/09/30 01:01:48;;;;;;;19.53;13.50;;;9.30;99.90;;;;;;5093742;28;20431;-47
2022/09/30 01:04:16;;;;;;;17.60;13.60;;;9.30;99.90;;;;;;5094811;28;20803;-46
2022/09/30 01:06:42;;;;;;;20.03;13.13;;;9.20;99.90;;;;;;5076074;28;20223;-46
2022/09/30 01:09:09;;;;;;;16.60;12.03;;;9.20;99.90;;;;;;5094302;28;20395;-46
2022/09/30 01:11:34;;;;;;;18.40;12.90;;;9.10;99.90;;;;;;5093421;28;20410;-46
2022/09/30 01:14:22;;;;;;;16.67;12.20;;;9.00;99.90;;;;;;5092764;28;20422;-46
2022/09/30 01:17:09;;;;;;;14.80;12.60;;;8.90;99.90;;;;;;5093708;28;20279;-51
2022/09/30 01:20:01;;;;;;;16.27;13.00;;;8.80;99.90;;;;;;5093779;28;20454;-46
2022/09/30 01:22:46;;;;;;;17.63;13.20;;;8.80;99.90;;;;;;5074020;28;20408;-47
2022/09/30 01:25:11;;;;;;;16.80;11.60;;;8.70;99.90;;;;;;5073972;28;21257;-44
2022/09/30 01:27:49;;;;;;;20.83;14.27;;;8.60;99.90;;;;;;5073484;28;20493;-45
2022/09/30 01:30:38;;;;;;;20.30;14.50;;;8.60;99.90;;;;;;5077587;28;20193;-45
2022/09/30 01:33:27;;;;;;;20.73;15.17;;;8.60;99.90;;;;;;5093847;28;20416;-45
2022/09/30 01:36:43;;;;;;;23.00;14.53;;;8.70;99.90;;;;;;5093997;28;20413;-45
2022/09/30 01:39:15;;;;;;;21.33;15.80;;;8.70;99.90;;;;;;5011198;28;20437;-45
2022/09/30 01:42:27;;;;;;;17.10;13.10;;;8.70;99.90;;;;;;5067605;28;20424;-45
2022/09/30 01:45:02;;;;;;;20.77;15.33;;;8.60;99.90;;;;;;5057249;28;20453;-45
2022/09/30 01:47:34;;;;;;;20.07;14.60;;;8.70;99.90;;;;;;5094208;28;21260;-45
2022/09/30 01:50:11;;;;;;;22.43;16.40;;;8.60;99.90;;;;;;5092896;28;21150;-45
2022/09/30 01:53:02;;;;;;;24.57;17.40;;;8.60;99.90;;;;;;5052824;28;20888;-45
2022/09/30 01:55:39;;;;;;;22.90;17.17;;;8.60;99.90;;;;;;5053333;28;20429;-45
2022/09/30 01:58:15;;;;;;;23.57;16.67;;;8.70;99.90;;;;;;5052991;28;20424;-45
2022/09/30 02:00:48;;;;;;;22.77;16.73;;;8.60;99.90;;;;;;5053028;28;20459;-45
2022/09/30 02:03:32;;;;;;;27.07;17.23;;;8.60;1.00;;;;;;5050314;28;20444;-46
2022/09/30 02:06:04;;;;;;;26.63;18.50;;;8.60;1.00;;;;;;5052861;28;20416;-45
2022/09/30 02:08:34;;;;;;;25.83;17.20;;;8.60;1.00;;;;;;5052503;28;20439;-45
2022/09/30 02:11:18;;;;;;;25.10;18.07;;;8.60;1.00;;;;;;5052740;28;20954;-47
2022/09/30 02:13:48;;;;;;;25.70;18.47;;;8.60;1.00;;;;;;5051972;28;20831;-45
2022/09/30 02:16:21;;;;;;;25.17;18.30;;;8.60;1.00;;;;;;5051667;28;20429;-45
2022/09/30 02:18:51;;;;;;;25.77;18.10;;;8.60;1.00;;;;;;5052745;28;20504;-45
2022/09/30 02:21:24;;;;;;;22.80;16.70;;;8.50;1.00;;;;;;5052606;28;20449;-45
2022/09/30 02:23:54;;;;;;;28.00;17.57;;;8.50;1.00;;;;;;5052556;28;20463;-46
2022/09/30 02:26:27;;;;;;;25.67;18.70;;;8.50;1.00;;;;;;5052361;28;20464;-46
2022/09/30 02:29:02;;;;;;;26.27;17.27;;;8.50;1.00;;;;;;5061062;28;20424;-46
2022/09/30 02:31:32;;;;;;;27.20;19.67;;;8.50;1.00;;;;;;5071100;28;20420;-46
2022/09/30 02:34:27;;;;;;;30.00;19.93;;;8.50;1.00;;;;;;5059599;28;20421;-46
2022/09/30 02:37:04;;;;;;;26.03;17.40;;;8.50;1.00;;;;;;5030165;28;20437;-46
2022/09/30 02:39:41;;;;;;;30.33;20.03;;;8.60;1.00;;;;;;5046565;28;20500;-46
2022/09/30 02:42:29;;;;;;;25.27;18.83;;;8.60;1.00;;;;;;5051770;28;20425;-46
2022/09/30 02:45:06;;;;;;;27.00;18.77;;;8.60;1.00;;;;;;5052502;28;20435;-46
2022/09/30 02:47:44;;;;;;;28.80;19.00;;;8.60;1.00;;;;;;5051881;28;20416;-46
2022/09/30 02:50:36;;;;;;;28.33;18.87;;;8.60;1.00;;;;;;5051576;28;20405;-46
2022/09/30 02:53:05;;;;;;;27.53;18.70;;;8.60;1.00;;;;;;5084630;28;20796;-45
2022/09/30 02:55:49;;;;;;;27.47;18.80;;;8.60;1.00;;;;;;5091592;28;20495;-46
2022/09/30 02:58:19;;;;;;;27.80;19.43;;;8.70;1.00;;;;;;5091781;28;20399;-46
2022/09/30 03:00:45;;;;;;;28.17;19.60;;;8.70;1.00;;;;;;5091439;28;20493;-45
2022/09/30 03:03:21;;;;;;;25.97;19.00;;;8.70;1.00;;;;;;5105390;28;20527;-46
2022/09/30 03:05:48;;;;;;;29.30;19.00;;;8.70;1.00;;;;;;5112073;28;20203;-46
2022/09/30 03:08:14;;;;;;;27.03;19.90;;;8.80;1.00;;;;;;5094737;28;20430;-46
2022/09/30 03:10:41;;;;;;;30.63;19.83;;;8.80;1.00;;;;;;5091257;28;20419;-46
2022/09/30 03:13:20;;;;;;;25.77;18.17;;;8.80;1.00;;;;;;5091727;28;20411;-47
2022/09/30 03:15:45;;;;;;;27.90;18.50;;;8.80;1.00;;;;;;5092260;28;20603;-46
2022/09/30 03:18:17;;;;;;;23.83;16.93;;;8.80;1.00;;;;;;5091749;28;20515;-46
2022/09/30 03:20:59;;;;;;;23.50;16.60;;;8.70;1.00;;;;;;5092721;28;20224;-47
2022/09/30 03:23:45;;;;;;;30.37;19.40;;;8.70;1.00;;;;;;5091580;28;20438;-47
2022/09/30 03:26:29;;;;;;;27.57;18.07;;;8.70;1.00;;;;;;5090979;28;20398;-47
2022/09/30 03:29:04;;;;;;;24.10;18.00;;;8.70;1.00;;;;;;5091096;28;21251;-48
2022/09/30 03:31:38;;;;;;;23.03;17.93;;;8.70;1.00;;;;;;5091988;28;20449;-48
2022/09/30 03:34:28;;;;;;;25.93;17.80;;;8.70;1.00;;;;;;5091349;28;20446;-49
2022/09/30 03:37:17;;;;;;;23.80;16.97;;;8.60;1.00;;;;;;5092202;28;20416;-49
2022/09/30 03:40:11;;;;;;;28.60;18.57;;;8.60;1.00;;;;;;5070970;28;20456;-49
2022/09/30 03:42:43;;;;;;;24.27;16.43;;;8.60;1.00;;;;;;5071102;28;20885;-48
2022/09/30 03:45:33;;;;;;;25.20;17.37;;;8.60;1.00;;;;;;5071128;28;20400;-48
2022/09/30 03:48:04;;;;;;;21.70;15.50;;;8.50;1.00;;;;;;5071590;28;20423;-48
2022/09/30 03:50:32;;;;;;;26.13;17.80;;;8.50;1.00;;;;;;5074411;28;20603;-49
2022/09/30 03:52:58;;;;;;;26.50;19.13;;;8.50;1.00;;;;;;5093890;28;20434;-48
2022/09/30 03:55:25;;;;;;;26.40;18.40;;;8.40;1.00;;;;;;5111608;28;20411;-48
2022/09/30 03:57:53;;;;;;;26.57;18.80;;;8.40;1.00;;;;;;5111627;28;20451;-47
2022/09/30 04:00:18;;;;;;;27.10;17.53;;;8.40;1.00;;;;;;5111244;28;21043;-48
2022/09/30 04:02:45;;;;;;;27.60;18.23;;;8.40;1.00;;;;;;5101147;28;20465;-51
2022/09/30 04:05:11;;;;;;;24.40;17.83;;;8.40;1.00;;;;;;5090343;28;20188;-48
2022/09/30 04:07:37;;;;;;;28.73;19.37;;;8.50;1.00;;;;;;5088990;28;20415;-49
2022/09/30 04:10:04;;;;;;;29.10;19.37;;;8.50;1.00;;;;;;5094402;28;20924;-49
2022/09/30 04:12:30;;;;;;;33.67;22.03;;;8.50;1.00;;;;;;5111216;28;20189;-48
2022/09/30 04:14:55;;;;;;;30.80;20.40;;;8.50;1.00;;;;;;5110793;28;20418;-49
2022/09/30 04:17:21;;;;;;;27.90;19.43;;;8.60;1.00;;;;;;5076078;28;20623;-48
2022/09/30 04:19:46;;;;;;;27.90;19.30;;;8.50;1.00;;;;;;5070183;28;20204;-47
2022/09/30 04:22:12;;;;;;;27.67;19.30;;;8.60;1.00;;;;;;5052885;28;20190;-47
2022/09/30 04:24:38;;;;;;;30.67;19.97;;;8.50;1.00;;;;;;5070477;28;20199;-47
2022/09/30 04:27:04;;;;;;;28.93;19.40;;;8.50;1.00;;;;;;5083497;28;20283;-47
2022/09/30 04:29:29;;;;;;;31.50;21.97;;;8.50;1.00;;;;;;5090437;28;20184;-47
2022/09/30 04:31:56;;;;;;;28.77;19.57;;;8.50;1.00;;;;;;5090284;28;20268;-47
2022/09/30 04:34:21;;;;;;;31.33;20.83;;;8.60;1.00;;;;;;5090648;28;20250;-47
2022/09/30 04:36:47;;;;;;;28.73;20.03;;;8.60;1.00;;;;;;5090190;28;20906;-46
2022/09/30 04:39:12;;;;;;;30.13;19.50;;;8.60;1.00;;;;;;5090204;28;20200;-46
2022/09/30 04:41:39;;;;;;;28.60;21.00;;;8.60;1.00;;;;;;5089867;28;20196;-47
2022/09/30 04:44:05;;;;;;;28.30;20.20;;;8.70;1.00;;;;;;5090694;28;20730;-46
2022/09/30 04:46:35;;;;;;;30.93;20.47;;;8.60;1.00;;;;;;5090914;28;20419;-47
2022/09/30 04:49:04;;;;;;;32.53;21.47;;;8.60;1.00;;;;;;5090268;28;20412;-47
2022/09/30 04:51:30;;;;;;;29.97;20.67;;;8.60;1.00;;;;;;5090388;28;20474;-46
2022/09/30 04:53:56;;;;;;;27.70;18.00;;;8.70;1.00;;;;;;5090403;28;20415;-47
2022/09/30 04:56:23;;;;;;;29.77;22.53;;;8.70;1.00;;;;;;5090419;28;20665;-49
2022/09/30 04:58:49;;;;;;;29.00;19.80;;;8.70;1.00;;;;;;5090142;28;20508;-48
2022/09/30 05:01:16;;;;;;;30.47;21.17;;;8.70;1.00;;;;;;5090888;28;20569;-48
2022/09/30 05:03:42;;;;;;;31.10;19.80;;;8.70;1.00;;;;;;5090721;28;20189;-48
2022/09/30 05:06:09;;;;;;;32.47;22.20;;;8.60;1.00;;;;;;5090388;28;20419;-49
2022/09/30 05:08:35;;;;;;;35.70;22.07;;;8.60;1.00;;;;;;5090446;28;20447;-48
2022/09/30 05:11:08;;;;;;;27.77;19.80;;;8.60;1.00;;;;;;5090377;28;20843;-49
2022/09/30 05:13:36;;;;;;;34.53;22.83;;;8.60;1.00;;;;;;5090269;28;20427;-48
2022/09/30 05:16:02;;;;;;;34.60;21.70;;;8.60;1.00;;;;;;5090783;28;20771;-48
2022/09/30 05:18:28;;;;;;;30.27;21.37;;;8.60;1.00;;;;;;5099957;28;20505;-47
2022/09/30 05:20:56;;;;;;;32.40;22.33;;;8.60;1.00;;;;;;5113886;28;20200;-48
2022/09/30 05:23:22;;;;;;;29.93;20.60;;;8.50;1.00;;;;;;5094096;28;20418;-49
2022/09/30 05:25:49;;;;;;;32.67;22.17;;;8.60;1.00;;;;;;5093605;28;20415;-47
2022/09/30 05:28:15;;;;;;;34.27;23.93;;;8.60;1.00;;;;;;5093177;28;20419;-47
2022/09/30 05:30:42;;;;;;;33.67;22.40;;;8.60;1.00;;;;;;5093715;28;20924;-47
2022/09/30 05:33:09;;;;;;;30.73;21.53;;;8.60;1.00;;;;;;5093244;28;20435;-47
2022/09/30 05:35:35;;;;;;;31.70;22.13;;;8.60;1.00;;;;;;5101831;28;20429;-47
2022/09/30 05:38:03;;;;;;;32.50;21.70;;;8.60;1.00;;;;;;5109671;28;20896;-47
2022/09/30 05:40:29;;;;;;;31.93;22.70;;;8.70;1.00;;;;;;5089216;28;20566;-48
2022/09/30 05:42:56;;;;;;;38.60;22.20;;;8.70;1.00;;;;;;5093131;28;20861;-48
2022/09/30 05:45:22;;;;;;;32.63;22.17;;;8.70;1.00;;;;;;5093235;28;20419;-48
2022/09/30 05:47:54;;;;;;;28.10;21.90;;;8.60;1.00;;;;;;5093326;28;20719;-49
2022/09/30 05:50:21;;;;;;;32.30;22.67;;;8.60;1.00;;;;;;5092810;28;20495;-48
2022/09/30 05:52:48;;;;;;;32.07;21.90;;;8.60;1.00;;;;;;5093399;28;20496;-47
2022/09/30 05:55:14;;;;;;;32.73;21.90;;;8.60;1.00;;;;;;5093294;28;20400;-47
2022/09/30 05:57:40;;;;;;;31.87;22.63;;;8.70;1.00;;;;;;5093131;28;20434;-47
2022/09/30 06:00:06;;;;;;;31.40;23.00;;;8.70;1.00;;;;;;5092966;28;20928;-47
2022/09/30 06:02:32;;;;;;;29.03;22.10;;;8.70;1.00;;;;;;5093630;28;20175;-48
2022/09/30 06:04:58;;;;;;;31.57;23.27;;;8.70;1.00;;;;;;5093027;28;20453;-47
2022/09/30 06:07:23;;;;;;;31.97;22.73;;;8.60;1.00;;;;;;5093107;28;20503;-47
2022/09/30 06:09:49;;;;;;;28.50;20.90;;;8.60;1.00;;;;;;5093533;28;20517;-46
2022/09/30 06:12:15;;;;;;;30.50;22.17;;;8.60;1.00;;;;;;5093800;28;20189;-47
2022/09/30 06:14:41;;;;;;;36.97;23.90;;;8.60;1.00;;;;;;5092824;28;20239;-47
2022/09/30 06:17:06;;;;;;;32.83;21.00;;;8.60;1.00;;;;;;5092316;28;20242;-47
2022/09/30 06:19:32;;;;;;;29.93;22.07;;;8.70;1.00;;;;;;5092418;28;20255;-47
2022/09/30 06:21:57;;;;;;;33.87;22.90;;;8.60;1.00;;;;;;5093770;28;20273;-46
2022/09/30 06:24:23;;;;;;;32.13;22.80;;;8.70;1.00;;;;;;5092374;28;20212;-46
2022/09/30 06:26:49;;;;;;;36.63;23.80;;;8.70;1.00;;;;;;5092975;28;20250;-46
2022/09/30 06:29:15;;;;;;;34.80;23.33;;;8.80;1.00;;;;;;5091144;28;20747;-46
2022/09/30 06:31:40;;;;;;;33.87;24.00;;;9.00;1.00;;;;;;5092701;28;20177;-46
2022/09/30 06:34:07;;;;;;;31.30;22.97;;;9.10;1.00;;;;;;5092851;28;20193;-47
2022/09/30 06:36:32;;;;;;;34.67;22.70;;;9.20;1.00;;;;;;5092905;28;20180;-47
2022/09/30 06:39:03;;;;;;;28.23;20.90;;;9.40;1.00;;;;;;5087289;28;20794;-46
2022/09/30 06:41:29;;;;;;;129.60;73.23;;;9.50;1.00;;;;;;5092192;28;20650;-47
2022/09/30 06:43:56;;;;;;;111.00;66.90;;;9.50;1.00;;;;;;5092445;28;21166;-46
2022/09/30 06:46:23;;;;;;;33.83;23.80;;;9.60;1.00;;;;;;5087492;28;20510;-47
2022/09/30 06:48:56;;;;;;;27.53;19.67;;;9.60;1.00;;;;;;5085716;28;20523;-46
2022/09/30 06:51:24;;;;;;;29.50;19.90;;;9.60;1.00;;;;;;5092949;28;20493;-46
2022/09/30 06:53:51;;;;;;;27.33;20.20;;;9.60;1.00;;;;;;5090959;28;20482;-45
2022/09/30 06:56:18;;;;;;;29.33;19.60;;;9.60;1.00;;;;;;5092019;28;20427;-46
2022/09/30 06:58:44;;;;;;;31.53;19.93;;;9.60;1.00;;;;;;5107541;28;20436;-46
2022/09/30 07:01:13;;;;;;;28.93;20.80;;;9.60;99.90;;;;;;5112373;28;20466;-46
2022/09/30 07:03:40;;;;;;;24.70;18.40;;;9.70;99.90;;;;;;5091682;28;20969;-46
2022/09/30 07:06:06;;;;;;;25.67;19.23;;;9.70;99.90;;;;;;5092025;28;20403;-47
2022/09/30 07:08:34;;;;;;;29.00;20.43;;;9.90;99.90;;;;;;5092088;28;20422;-47
2022/09/30 07:11:03;;;;;;;25.53;19.50;;;10.20;1.00;;;;;;5091923;28;20448;-46
2022/09/30 07:13:29;;;;;;;24.43;19.10;;;10.80;1.00;;;;;;5091935;28;20429;-46
2022/09/30 07:15:58;;;;;;;21.10;15.87;;;11.60;1.00;;;;;;5093394;28;20474;-46
2022/09/30 07:18:26;;;;;;;20.03;14.57;;;12.50;99.90;;;;;;5089408;28;20470;-48
2022/09/30 07:20:54;;;;;;;16.17;12.67;;;13.10;1.00;;;;;;5093600;28;20964;-47
2022/09/30 07:23:21;;;;;;;16.13;12.63;;;13.60;1.00;;;;;;5090813;28;20439;-48
2022/09/30 07:25:55;;;;;;;13.93;11.07;;;14.00;1.00;;;;;;5091750;28;21065;-49
2022/09/30 07:28:26;;;;;;;14.47;11.00;;;14.60;99.90;;;;;;5091521;28;20426;-48
2022/09/30 07:30:55;;;;;;;14.47;10.60;;;15.00;1.00;;;;;;5091694;28;20423;-48
2022/09/30 07:33:25;;;;;;;14.77;10.40;;;15.50;1.00;;;;;;5091544;28;20426;-49
2022/09/30 07:35:52;;;;;;;11.63;9.40;;;15.80;99.90;;;;;;5091624;28;20414;-49
2022/09/30 07:38:20;;;;;;;12.30;10.30;;;16.00;50.60;;;;;;5090971;28;20418;-49
2022/09/30 07:40:54;;;;;;;11.43;10.23;;;16.20;99.90;;;;;;5088723;28;20466;-49
2022/09/30 07:43:21;;;;;;;12.30;10.17;;;16.40;1.00;;;;;;5091483;28;20430;-51
2022/09/30 07:45:48;;;;;;;10.77;9.67;;;16.70;1.00;;;;;;5091555;28;20419;-47
2022/09/30 07:48:41;;;;;;;11.90;10.03;;;17.00;1.00;;;;;;5090819;28;20442;-46
2022/09/30 07:50:59;;;;;;;12.10;8.97;;;17.40;1.00;;;;;;5091204;28;20490;-46
2022/09/30 07:53:25;;;;;;;12.43;9.40;;;17.80;1.00;;;;;;5091354;28;20422;-46
2022/09/30 07:55:51;;;;;;;13.63;8.33;;;18.00;1.00;;;;;;5092866;28;20714;-46
2022/09/30 07:58:17;;;;;;;10.83;8.50;;;18.00;1.00;;;;;;5087629;28;20231;-46
2022/09/30 08:00:42;;;;;;;9.40;8.33;;;18.00;1.00;;;;;;5090217;28;20533;-46
2022/09/30 08:03:08;;;;;;;9.48;8.48;;;18.20;1.00;;;;;;5089415;28;20981;-46
2022/09/30 08:05:43;;;;;;;11.77;9.23;;;18.40;1.00;;;;;;5067333;28;20192;-52
2022/09/30 08:08:09;;;;;;;9.37;8.37;;;18.10;1.00;;;;;;5087565;28;20442;-46
2022/09/30 08:10:34;;;;;;;10.13;8.07;;;18.40;1.00;;;;;;5089564;28;20423;-46
2022/09/30 08:13:01;;;;;;;10.97;8.00;;;18.40;1.00;;;;;;5090905;28;20193;-46
2022/09/30 08:15:26;;;;;;;9.57;7.60;;;18.30;1.00;;;;;;5087959;28;20208;-46
2022/09/30 08:17:52;;;;;;;10.63;7.80;;;18.30;1.00;;;;;;5089240;28;20443;-46
2022/09/30 08:20:17;;;;;;;10.37;9.20;;;18.30;1.00;;;;;;5090026;28;20220;-46
2022/09/30 08:22:43;;;;;;;14.57;9.77;;;18.40;1.00;;;;;;5089111;28;20192;-46
2022/09/30 08:25:09;;;;;;;14.73;8.20;;;18.70;1.00;;;;;;5088387;28;20210;-47
2022/09/30 08:27:34;;;;;;;10.87;7.30;;;18.90;1.00;;;;;;5090260;28;20197;-48
2022/09/30 08:30:00;;;;;;;11.33;7.40;;;18.90;1.00;;;;;;5090884;28;20242;-59
2022/09/30 08:32:29;;;;;;;11.40;6.60;;;19.00;1.00;;;;;;5089788;28;20623;-49
2022/09/30 08:34:55;;;;;;;7.87;6.43;;;19.30;1.00;;;;;;5090708;28;20192;-50
2022/09/30 08:37:20;;;;;;;8.10;6.33;;;19.40;1.00;;;;;;5089790;28;20438;-50
2022/09/30 08:39:47;;;;;;;9.10;6.00;;;19.20;1.00;;;;;;5091941;28;20294;-50
2022/09/30 08:42:45;;;;;;;6.70;6.10;;;18.90;1.00;;;;;;5089748;28;20181;-50
2022/09/30 08:45:35;;;;;;;7.00;6.30;;;18.70;1.00;;;;;;5076435;28;21002;-49
2022/09/30 08:48:18;;;;;;;7.60;6.20;;;18.20;1.00;;;;;;5089680;28;20439;-50
2022/09/30 08:51:00;;;;;;;6.57;5.90;;;17.50;1.00;;;;;;5090510;28;20482;-50
2022/09/30 08:53:32;;;;;;;8.00;5.60;;;16.70;1.00;;;;;;5092025;28;20453;-50
2022/09/30 08:56:01;;;;;;;9.93;7.17;;;16.10;1.00;;;;;;5094027;28;20431;-50
2022/09/30 08:58:30;;;;;;;8.03;6.77;;;15.70;1.00;;;;;;5094189;28;20471;-50
2022/09/30 09:01:12;;;;;;;7.63;6.60;;;15.50;1.00;;;;;;5094069;28;20740;-50
2022/09/30 09:03:39;;;;;;;11.43;6.80;;;15.20;1.00;;;;;;5090150;28;20660;-49
2022/09/30 09:06:28;;;;;;;9.00;7.00;;;15.10;1.00;;;;;;5094400;28;20423;-51
2022/09/30 09:09:21;;;;;;;10.60;6.10;;;14.90;1.00;;;;;;5082373;28;20446;-50
2022/09/30 09:11:50;;;;;;;8.30;6.10;;;14.80;1.00;;;;;;5094043;28;20418;-50
2022/09/30 09:14:38;;;;;;;10.73;6.57;;;14.70;1.00;;;;;;5092970;28;20473;-50
2022/09/30 09:17:25;;;;;;;9.87;6.17;;;14.80;1.00;;;;;;5105065;28;20916;-49
2022/09/30 09:20:20;;;;;;;7.80;6.03;;;15.10;1.00;;;;;;5098030;28;20473;-50
2022/09/30 09:22:47;;;;;;;8.27;6.47;;;15.20;1.00;;;;;;5093757;28;20893;-50
2022/09/30 09:25:19;;;;;;;7.90;6.37;;;15.50;1.00;;;;;;5093351;28;20486;-51
2022/09/30 09:27:56;;;;;;;7.03;6.10;;;15.70;1.00;;;;;;5076568;28;21003;-61
2022/09/30 09:30:23;;;;;;;9.83;6.60;;;15.90;1.00;;;;;;5073182;28;20874;-50
2022/09/30 09:32:56;;;;;;;8.20;5.93;;;15.90;1.00;;;;;;5078510;28;20443;-50
2022/09/30 09:35:26;;;;;;;10.63;5.83;;;15.80;1.00;;;;;;5093087;28;20415;-49
2022/09/30 09:38:28;;;;;;;5.70;5.10;;;15.80;1.00;;;;;;5092528;28;20447;-49
2022/09/30 09:41:22;;;;;;;6.90;5.83;;;15.80;1.00;;;;;;5092635;28;20472;-49
2022/09/30 09:44:01;;;;;;;7.00;5.40;;;15.90;1.00;;;;;;5093112;28;20561;-49
2022/09/30 09:46:39;;;;;;;6.33;5.40;;;15.90;1.00;;;;;;5092460;28;20450;-49
2022/09/30 09:49:19;;;;;;;6.03;5.20;;;16.10;1.00;;;;;;5093180;28;20396;-51
2022/09/30 09:51:53;;;;;;;9.67;5.47;;;16.20;1.00;;;;;;5092360;28;20529;-49
2022/09/30 09:54:21;;;;;;;7.37;5.63;;;16.10;1.00;;;;;;5093233;28;20460;-49
2022/09/30 09:56:46;;;;;;;10.77;5.70;;;16.00;1.00;;;;;;5092139;28;20446;-52
2022/09/30 09:59:14;;;;;;;10.13;5.73;;;15.90;1.00;;;;;;5092679;28;20423;-49
2022/09/30 10:01:46;;;;;;;8.47;5.20;;;15.80;1.00;;;;;;5092360;28;20572;-49
2022/09/30 10:04:29;;;;;;;6.80;5.70;;;15.80;1.00;;;;;;5091688;28;20760;-49
2022/09/30 10:06:59;;;;;;;8.77;5.67;;;15.90;1.00;;;;;;5091896;28;20450;-49
2022/09/30 10:09:32;;;;;;;6.33;5.70;;;15.90;1.00;;;;;;5092579;28;20446;-49
2022/09/30 10:12:06;;;;;;;8.93;5.70;;;16.00;1.00;;;;;;5092049;28;20819;-52
2022/09/30 10:14:56;;;;;;;11.33;6.43;;;16.20;1.00;;;;;;5092624;28;20391;-49
2022/09/30 10:17:33;;;;;;;12.80;5.77;;;16.20;1.00;;;;;;5105275;28;20450;-49
2022/09/30 10:20:14;;;;;;;7.97;6.07;;;16.20;1.00;;;;;;5113149;28;20572;-49
2022/09/30 10:22:40;;;;;;;8.00;5.77;;;16.10;1.00;;;;;;5093073;28;20542;-48
2022/09/30 10:25:22;;;;;;;7.90;5.07;;;16.10;1.00;;;;;;5092489;28;20465;-49
2022/09/30 10:27:59;;;;;;;6.60;5.33;;;16.20;1.00;;;;;;5091812;28;20204;-49
2022/09/30 10:30:40;;;;;;;5.80;5.20;;;16.20;1.00;;;;;;5092232;28;20435;-49
2022/09/30 10:33:34;;;;;;;6.80;5.33;;;16.20;1.00;;;;;;5072067;28;20423;-48
2022/09/30 10:36:14;;;;;;;7.60;4.97;;;16.20;1.00;;;;;;5089498;28;20478;-49
2022/09/30 10:39:04;;;;;;;18.93;12.63;;;16.50;1.00;;;;;;5072933;28;20453;-49
2022/09/30 10:41:31;;;;;;;9.20;6.70;;;17.10;1.00;;;;;;5092184;28;20459;-49
2022/09/30 10:44:01;;;;;;;7.67;5.40;;;17.70;1.00;;;;;;5091797;28;20443;-49
2022/09/30 10:46:38;;;;;;;7.53;4.83;;;18.30;1.00;;;;;;5092573;28;20423;-50
2022/09/30 10:49:29;;;;;;;5.23;3.73;;;19.20;1.00;;;;;;5092439;28;20449;-50
2022/09/30 10:51:55;;;;;;;4.83;3.40;;;20.40;1.00;;;;;;5039925;28;20493;-49
2022/09/30 10:54:39;;;;;;;4.27;3.87;;;21.00;1.00;;;;;;5091793;28;20443;-50
2022/09/30 10:57:18;;;;;;;4.20;3.67;;;22.10;1.00;;;;;;5074422;28;20584;-50
2022/09/30 10:59:45;;;;;;;3.80;2.43;;;22.80;1.00;;;;;;5092210;28;20483;-49
2022/09/30 11:02:24;;;;;;;4.80;2.27;;;23.30;1.00;;;;;;5092134;28;20479;-50
2022/09/30 11:05:00;;;;;;;6.07;3.00;;;23.90;1.00;;;;;;5091149;28;20443;-50
2022/09/30 11:07:49;;;;;;;3.27;2.43;;;23.30;99.90;;;;;;5091437;28;20406;-50
2022/09/30 11:10:44;;;;;;;4.20;2.63;;;22.40;99.90;;;;;;5083749;28;20509;-50
2022/09/30 11:13:26;;;;;;;2.87;2.67;;;21.70;99.90;;;;;;5091608;28;20430;-49
2022/09/30 11:16:16;;;;;;;3.50;3.00;;;22.10;99.90;;;;;;5090143;28;20451;-49
2022/09/30 11:18:53;;;;;;;3.30;2.33;;;22.40;99.90;;;;;;5091342;28;20414;-49
2022/09/30 11:21:43;;;;;;;2.97;2.67;;;22.50;99.90;;;;;;5090899;28;20501;-50
2022/09/30 11:24:35;;;;;;;2.10;1.90;;;22.90;99.90;;;;;;5090495;28;20549;-50
2022/09/30 11:27:25;;;;;;;4.83;2.13;;;23.30;99.90;;;;;;5086138;28;20436;-50
2022/09/30 11:29:51;;;;;;;1.93;1.83;;;24.10;99.90;;;;;;5090653;28;20534;-50
2022/09/30 11:32:22;;;;;;;1.80;1.70;;;24.70;99.90;;;;;;5091784;28;20510;-51
2022/09/30 11:35:06;;;;;;;2.27;2.10;;;24.70;99.90;;;;;;5090656;28;20605;-49
2022/09/30 11:37:51;;;;;;;2.20;2.00;;;24.90;99.90;;;;;;5091711;28;20407;-49
2022/09/30 11:40:32;;;;;;;2.80;1.77;;;24.80;99.90;;;;;;5090774;28;20943;-49
2022/09/30 11:43:12;;;;;;;2.00;1.90;;;24.70;99.90;;;;;;5090855;28;20439;-46
2022/09/30 11:45:58;;;;;;;2.77;2.53;;;25.20;99.90;;;;;;5091364;28;20781;-47
2022/09/30 11:49:04;;;;;;;2.70;2.50;;;25.80;99.90;;;;;;5090260;28;20458;-47
2022/09/30 11:51:36;;;;;;;2.77;2.57;;;25.70;99.90;;;;;;5089851;28;20488;-46
2022/09/30 11:54:30;;;;;;;2.27;2.07;;;26.00;99.90;;;;;;5090435;28;20491;-47
2022/09/30 11:57:09;;;;;;;2.40;2.00;;;26.00;99.90;;;;;;5067266;28;20450;-47
2022/09/30 11:59:38;;;;;;;3.03;2.30;;;26.00;99.90;;;;;;5089726;28;20493;-47
2022/09/30 12:02:19;;;;;;;2.63;2.43;;;25.40;99.90;;;;;;5090769;28;20430;-47
2022/09/30 12:04:46;;;;;;;2.20;2.00;;;25.10;99.90;;;;;;5088707;28;20514;-47
2022/09/30 12:07:17;;;;;;;3.27;2.97;;;25.10;99.90;;;;;;5088850;28;20769;-46
2022/09/30 12:09:48;;;;;;;2.80;2.57;;;25.70;99.90;;;;;;5090355;28;20920;-50
2022/09/30 12:12:16;;;;;;;2.07;1.97;;;25.60;99.90;;;;;;5089887;28;20431;-52
2022/09/30 12:14:48;;;;;;;2.20;2.00;;;25.60;99.90;;;;;;5089300;28;20446;-50
2022/09/30 12:18:12;;;;;;;4.40;2.27;;;25.60;99.90;;;;;;5078843;28;20423;-49
2022/09/30 12:20:51;;;;;;;3.33;2.60;;;25.90;99.90;;;;;;5045172;28;21040;-51
2022/09/30 12:23:43;;;;;;;2.50;2.30;;;26.00;99.90;;;;;;5072944;28;20446;-50
2022/09/30 12:26:11;;;;;;;3.50;3.20;;;25.80;99.90;;;;;;5090002;28;21054;-49
2022/09/30 12:32:00;;;;;;;4.73;3.67;;;25.10;99.90;;;;;;5094270;28;20537;-49
2022/09/30 12:34:44;;;;;;;5.50;3.97;;;24.70;99.90;;;;;;5087308;28;20430;-50
2022/09/30 12:37:57;;;;;;;5.20;4.60;;;24.30;99.90;;;;;;5093675;28;20442;-49
2022/09/30 12:40:37;;;;;;;5.53;5.03;;;23.50;99.90;;;;;;4989986;28;20489;-49
2022/09/30 12:43:30;;;;;;;5.77;5.13;;;22.60;99.90;;;;;;4992183;28;20451;-49
2022/09/30 12:46:02;;;;;;;5.03;4.47;;;22.30;99.90;;;;;;5058403;28;20428;-50
2022/09/30 12:49:03;;;;;;;5.47;4.50;;;22.50;99.90;;;;;;5091603;28;20951;-49
2022/09/30 12:51:34;;;;;;;5.10;4.60;;;23.00;99.90;;;;;;5094316;28;20477;-51
2022/09/30 12:54:33;;;;;;;6.57;4.60;;;23.70;99.90;;;;;;5092705;28;20450;-50
2022/09/30 12:57:02;;;;;;;9.17;5.27;;;23.00;99.90;;;;;;5092487;28;20450;-50
2022/09/30 12:59:34;;;;;;;6.27;5.17;;;22.60;99.90;;;;;;5092964;28;21050;-49
2022/09/30 13:02:03;;;;;;;5.90;4.63;;;22.90;99.90;;;;;;5093832;28;20434;-50
2022/09/30 13:04:38;;;;;;;5.50;4.90;;;23.40;99.90;;;;;;5093844;28;20492;-49
2022/09/30 13:07:10;;;;;;;8.50;5.27;;;23.50;99.90;;;;;;5094495;28;20762;-50
2022/09/30 13:10:01;;;;;;;6.37;4.60;;;23.40;99.90;;;;;;5094203;28;20448;-51
2022/09/30 13:12:51;;;;;;;4.93;4.53;;;23.50;99.90;;;;;;5093772;28;20415;-50
2022/09/30 13:15:29;;;;;;;4.67;4.27;;;23.30;99.90;;;;;;5093675;28;20966;-49
2022/09/30 13:18:25;;;;;;;6.00;4.80;;;23.00;99.90;;;;;;5093395;28;20430;-50
2022/09/30 13:21:09;;;;;;;5.83;4.07;;;22.70;99.90;;;;;;5094657;28;20458;-51
2022/09/30 13:23:38;;;;;;;8.60;4.17;;;23.20;99.90;;;;;;5096426;28;21158;-49